createdAt,value
2019-04-10T00:02:07.105Z,99.40
2019-04-10T00:04:36.918Z,99.40
2019-04-10T00:07:14.659Z,99.50
2019-04-10T00:09:39.012Z,99.60
2019-04-10T00:12:09.437Z,99.60
2019-04-10T00:14:38.696Z,99.60
2019-04-10T00:17:07.568Z,99.50
2019-04-10T00:19:36.387Z,99.40
2019-04-10T00:22:06.187Z,99.50
2019-04-10T00:24:35.713Z,99.50
2019-04-10T00:27:04.610Z,99.40
2019-04-10T00:29:33.355Z,99.40
2019-04-10T00:32:02.374Z,99.00
2019-04-10T00:34:31.841Z,99.30
2019-04-10T00:37:01.764Z,99.30
2019-04-10T00:39:30.763Z,99.20
2019-04-10T00:41:59.638Z,99.40
2019-04-10T00:44:28.476Z,99.50
2019-04-10T00:46:57.348Z,99.30
2019-04-10T00:49:26.184Z,99.30
2019-04-10T00:51:55.568Z,99.10
2019-04-10T00:54:24.519Z,99.00
2019-04-10T00:56:54.407Z,98.60
2019-04-10T00:59:24.130Z,98.60
2019-04-10T01:01:54.191Z,99.20
2019-04-10T01:04:23.149Z,99.40
2019-04-10T01:06:52.508Z,99.40
2019-04-10T01:09:21.531Z,99.60
2019-04-10T01:11:52.441Z,99.70
2019-04-10T01:14:21.314Z,99.70
2019-04-10T01:16:50.161Z,99.80
2019-04-10T01:19:19.637Z,99.80
2019-04-10T01:21:48.590Z,99.70
2019-04-10T01:24:17.601Z,99.80
2019-04-10T01:26:47.500Z,99.60
2019-04-10T01:29:17.389Z,99.60
2019-04-10T01:31:48.570Z,99.60
2019-04-10T01:34:17.425Z,99.60
2019-04-10T01:36:48.286Z,99.60
2019-04-10T01:39:22.296Z,99.60
2019-04-10T01:41:52.196Z,99.60
2019-04-10T01:44:21.159Z,99.30
2019-04-10T01:46:50.767Z,99.20
2019-04-10T01:49:19.735Z,99.40
2019-04-10T01:51:49.689Z,99.40
2019-04-10T01:54:19.385Z,99.60
2019-04-10T01:56:48.292Z,99.60
2019-04-10T01:59:18.745Z,99.60
2019-04-10T02:01:49.150Z,99.70
2019-04-10T02:04:18.455Z,99.60
2019-04-10T02:06:47.300Z,99.70
2019-04-10T02:09:16.184Z,99.60
2019-04-10T02:11:46.005Z,99.50
2019-04-10T02:14:14.888Z,99.60
2019-04-10T02:16:43.789Z,99.40
2019-04-10T02:19:12.657Z,99.60
2019-04-10T02:21:42.147Z,99.90
2019-04-10T02:24:11.187Z,99.90
2019-04-10T02:26:40.025Z,99.80
2019-04-10T02:29:09.269Z,99.90
2019-04-10T02:31:39.044Z,99.90
2019-04-10T02:34:09.373Z,99.90
2019-04-10T02:36:38.712Z,99.90
2019-04-10T02:39:19.429Z,99.80
2019-04-10T02:41:38.736Z,99.80
2019-04-10T02:44:08.013Z,99.70
2019-04-10T02:46:37.121Z,99.80
2019-04-10T02:49:08.037Z,99.90
2019-04-10T02:51:36.865Z,99.90
2019-04-10T02:54:05.788Z,99.90
2019-04-10T02:56:34.685Z,99.90
2019-04-10T02:59:05.002Z,99.90
2019-04-10T03:01:35.503Z,99.90
2019-04-10T03:04:05.474Z,99.90
2019-04-10T03:06:35.476Z,99.90
2019-04-10T03:09:24.111Z,99.90
2019-04-10T03:11:36.919Z,99.90
2019-04-10T03:14:05.879Z,99.90
2019-04-10T03:16:35.456Z,99.90
2019-04-10T03:19:05.333Z,99.90
2019-04-10T03:21:35.347Z,99.90
2019-04-10T03:24:04.356Z,99.90
2019-04-10T03:26:33.961Z,99.90
2019-04-10T03:29:03.837Z,99.90
2019-04-10T03:31:34.431Z,99.90
2019-04-10T03:34:16.023Z,99.90
2019-04-10T03:36:45.486Z,99.90
2019-04-10T03:39:15.365Z,99.90
2019-04-10T03:41:44.370Z,99.90
2019-04-10T03:44:13.208Z,99.90
2019-04-10T03:46:42.704Z,99.90
2019-04-10T03:49:11.872Z,99.90
2019-04-10T03:51:40.897Z,99.90
2019-04-10T03:54:10.854Z,99.90
2019-04-10T03:56:40.174Z,99.90
2019-04-10T03:59:09.498Z,99.90
2019-04-10T04:01:38.933Z,99.90
2019-04-10T04:04:09.009Z,99.90
2019-04-10T04:06:38.016Z,99.90
2019-04-10T04:09:10.884Z,99.90
2019-04-10T04:11:37.834Z,99.90
2019-04-10T04:14:06.710Z,99.90
2019-04-10T04:16:35.590Z,99.90
2019-04-10T04:19:04.453Z,99.90
2019-04-10T04:21:34.129Z,99.90
2019-04-10T04:24:03.606Z,99.90
2019-04-10T04:26:32.938Z,99.90
2019-04-10T04:29:02.031Z,99.90
2019-04-10T04:31:31.232Z,99.90
2019-04-10T04:34:04.026Z,99.90
2019-04-10T04:36:33.052Z,99.90
2019-04-10T04:39:12.708Z,99.90
2019-04-10T04:41:32.522Z,99.90
2019-04-10T04:44:01.802Z,99.90
2019-04-10T04:46:30.699Z,99.90
2019-04-10T04:49:00.032Z,99.90
2019-04-10T04:51:29.293Z,99.90
2019-04-10T04:53:58.994Z,99.90
2019-04-10T04:56:28.242Z,99.90
2019-04-10T04:58:57.209Z,99.90
2019-04-10T05:01:26.100Z,99.90
2019-04-10T05:03:55.061Z,99.90
2019-04-10T05:06:24.364Z,99.90
2019-04-10T05:08:53.363Z,99.90
2019-04-10T05:11:22.399Z,99.90
2019-04-10T05:13:51.276Z,99.90
2019-04-10T05:16:20.674Z,99.60
2019-04-10T05:18:50.138Z,99.20
2019-04-10T05:21:19.135Z,99.30
2019-04-10T05:23:49.201Z,99.20
2019-04-10T05:26:18.668Z,98.90
2019-04-10T05:28:48.447Z,98.70
2019-04-10T05:31:17.505Z,98.60
2019-04-10T05:33:47.160Z,98.20
2019-04-10T05:39:25.019Z,97.80
2019-04-10T05:42:02.423Z,97.80
2019-04-10T05:44:31.891Z,97.50
2019-04-10T05:47:01.193Z,97.20
2019-04-10T05:49:31.022Z,95.50
2019-04-10T06:35:57.287Z,74.80
2019-04-10T06:38:26.584Z,75.00
2019-04-10T06:40:55.504Z,71.30
2019-04-10T06:43:26.634Z,71.70
2019-04-10T06:45:55.791Z,74.70
2019-04-10T06:48:25.797Z,75.00
2019-04-10T06:50:55.613Z,76.30
2019-04-10T06:53:24.806Z,75.00
2019-04-10T06:55:54.457Z,74.00
2019-04-10T06:58:23.717Z,75.10
2019-04-10T07:00:53.821Z,76.70
2019-04-10T07:03:23.213Z,78.80
2019-04-10T07:06:03.617Z,75.40
2019-04-10T07:08:25.993Z,75.80
2019-04-10T07:11:02.573Z,71.30
2019-04-10T07:13:26.056Z,71.70
2019-04-10T07:15:58.173Z,67.90
2019-04-10T07:18:26.384Z,65.80
2019-04-10T07:20:58.361Z,66.80
2019-04-10T07:23:28.886Z,68.80
2019-04-10T07:25:56.606Z,69.80
2019-04-10T07:28:25.666Z,69.40
2019-04-10T07:30:59.391Z,68.40
2019-04-10T07:33:25.253Z,68.70
2019-04-10T07:35:56.525Z,67.40
2019-04-10T07:38:24.734Z,66.50
2019-04-10T07:40:54.623Z,65.10
2019-04-10T07:43:27.195Z,64.30
2019-04-10T07:45:56.602Z,63.80
2019-04-10T07:48:25.108Z,63.30
2019-04-10T07:50:54.071Z,65.80
2019-04-10T07:53:22.934Z,66.40
2019-04-10T07:56:02.244Z,66.90
2019-04-10T07:58:23.526Z,67.20
2019-04-10T08:00:53.306Z,68.60
2019-04-10T08:03:22.886Z,70.80
2019-04-10T08:05:54.688Z,73.70
2019-04-10T08:08:23.699Z,76.80
2019-04-10T08:10:52.996Z,75.50
2019-04-10T08:13:22.579Z,75.30
2019-04-10T08:15:52.251Z,76.80
2019-04-10T08:18:21.230Z,75.80
2019-04-10T08:20:50.891Z,76.00
2019-04-10T08:23:19.810Z,76.10
2019-04-10T08:25:49.542Z,75.50
2019-04-10T08:28:19.749Z,80.80
2019-04-10T08:30:48.754Z,79.80
2019-04-10T08:33:17.599Z,78.10
2019-04-10T08:35:47.387Z,78.80
2019-04-10T08:38:17.249Z,81.30
2019-04-10T08:40:46.229Z,78.00
2019-04-10T08:43:15.832Z,77.60
2019-04-10T08:45:48.663Z,75.10
2019-04-10T08:48:15.527Z,78.80
2019-04-10T08:50:44.550Z,75.20
2019-04-10T08:53:13.878Z,74.60
2019-04-10T08:55:43.162Z,73.80
2019-04-10T08:58:12.103Z,77.50
2019-04-10T09:00:40.992Z,75.60
2019-04-10T09:03:10.821Z,75.30
2019-04-10T09:05:39.878Z,76.10
2019-04-10T09:08:08.799Z,76.00
2019-04-10T09:10:38.500Z,77.50
2019-04-10T09:13:08.377Z,75.60
2019-04-10T09:15:38.213Z,75.30
2019-04-10T09:18:17.341Z,72.20
2019-04-10T09:20:46.899Z,72.60
2019-04-10T09:23:25.228Z,73.30
2019-04-10T09:25:49.171Z,73.00
2019-04-10T09:28:18.213Z,75.00
2019-04-10T09:30:47.240Z,75.10
2019-04-10T09:33:22.054Z,76.90
2019-04-10T09:35:46.869Z,77.00
2019-04-10T09:38:16.744Z,75.30
2019-04-10T09:40:46.700Z,78.50
2019-04-10T09:43:25.310Z,76.20
2019-04-10T09:46:04.261Z,77.10
2019-04-10T10:20:07.954Z,76.60
2019-04-10T10:22:37.034Z,77.30
2019-04-10T10:25:09.199Z,77.80
2019-04-10T10:27:38.544Z,75.90
2019-04-10T10:30:09.363Z,75.40
2019-04-10T10:32:39.273Z,74.10
2019-04-10T10:35:09.279Z,73.30
2019-04-10T10:37:38.842Z,73.50
2019-04-10T10:40:08.870Z,74.50
2019-04-10T10:42:40.984Z,73.40
2019-04-10T10:45:18.489Z,74.80
2019-04-10T10:47:50.631Z,74.80
2019-04-10T10:50:19.672Z,76.10
2019-04-10T10:52:48.642Z,74.50
2019-04-10T10:55:19.525Z,72.80
2019-04-10T10:57:49.604Z,73.00
2019-04-10T11:31:09.168Z,67.10
2019-04-10T11:33:39.901Z,71.10
2019-04-10T11:36:09.755Z,71.80
2019-04-10T11:38:39.813Z,68.90
2019-04-10T11:41:09.113Z,67.80
2019-04-10T11:43:38.177Z,66.90
2019-04-10T11:46:07.937Z,68.10
2019-04-10T12:32:07.005Z,70.60
2019-04-10T16:17:39.907Z,66.00
2019-04-10T16:38:20.563Z,65.70
2019-04-10T16:40:49.539Z,67.30
2019-04-10T16:43:18.446Z,64.20
2019-04-10T18:01:08.355Z,72.10
2019-04-10T18:03:48.551Z,72.00
2019-04-10T19:40:00.250Z,77.70
2019-04-10T19:50:57.448Z,78.00
2019-04-10T19:53:27.438Z,77.40
2019-04-10T19:56:22.862Z,76.70
2019-04-10T19:58:52.683Z,76.80
2019-04-10T20:01:26.750Z,76.30
2019-04-10T20:03:57.513Z,77.30
2019-04-10T20:09:26.388Z,76.80
2019-04-10T20:12:04.391Z,76.30
2019-04-10T20:14:38.932Z,76.30
2019-04-10T20:17:08.053Z,76.40
2019-04-10T20:19:38.116Z,74.90
2019-04-10T20:22:08.405Z,75.70
2019-04-10T20:24:37.823Z,76.10
2019-04-10T20:27:11.999Z,75.90
2019-04-10T20:29:41.371Z,75.80
2019-04-10T20:32:19.609Z,75.70
2019-04-10T20:35:04.385Z,75.70
2019-04-10T20:37:34.453Z,75.70
2019-04-10T20:40:11.848Z,75.10
2019-04-10T20:43:41.348Z,75.80
2019-04-10T20:45:17.579Z,76.10
2019-04-10T20:47:56.091Z,74.70
2019-04-10T20:50:26.515Z,74.60
2019-04-10T20:52:59.834Z,74.80
2019-04-10T20:55:30.751Z,74.70
2019-04-10T20:57:59.793Z,75.00
2019-04-10T21:00:41.198Z,74.50
2019-04-10T21:03:11.455Z,75.10
2019-04-10T21:05:48.726Z,74.60
2019-04-10T21:08:17.906Z,75.50
2019-04-10T21:10:47.237Z,76.50
2019-04-10T21:13:17.071Z,76.10
2019-04-10T21:15:48.525Z,75.80
2019-04-10T21:18:17.573Z,76.60
2019-04-10T21:20:54.127Z,77.00
2019-04-10T21:23:27.221Z,77.40
2019-04-10T21:26:18.454Z,77.70
2019-04-10T21:28:56.756Z,78.60
2019-04-10T21:31:42.749Z,78.50
2019-04-10T21:34:28.638Z,79.50
2019-04-10T21:36:57.986Z,79.10
2019-04-10T21:39:27.754Z,79.20
2019-04-10T21:42:09.953Z,80.00
2019-04-10T21:44:28.940Z,80.30
2019-04-10T21:46:59.182Z,80.20
2019-04-10T21:49:30.371Z,79.70
2019-04-10T21:51:59.979Z,79.80
2019-04-10T21:54:31.409Z,81.00
2019-04-10T21:57:02.459Z,79.30
2019-04-10T21:59:32.869Z,79.50
2019-04-10T22:02:04.949Z,79.60
2019-04-10T22:04:35.280Z,80.00
2019-04-10T22:07:14.092Z,80.10
2019-04-10T22:10:03.460Z,80.10
2019-04-10T22:12:40.454Z,79.60
2019-04-10T22:15:14.960Z,80.50
2019-04-10T22:20:36.310Z,79.50
2019-04-10T22:23:07.522Z,79.40
2019-04-10T22:25:44.446Z,80.80
2019-04-10T22:28:18.968Z,80.50
2019-04-10T22:30:48.440Z,81.30
2019-04-10T22:36:31.411Z,81.10
2019-04-10T22:39:04.788Z,81.00
2019-04-10T22:41:53.013Z,80.30
2019-04-10T22:44:34.828Z,81.50
2019-04-10T22:46:55.523Z,83.50
2019-04-10T22:49:47.152Z,82.80
2019-04-10T22:55:16.039Z,83.30
2019-04-10T22:57:48.479Z,83.60
2019-04-10T23:00:22.188Z,84.40
2019-04-10T23:02:55.457Z,84.60
2019-04-10T23:05:24.646Z,84.70
2019-04-10T23:07:59.121Z,85.20
2019-04-10T23:10:43.596Z,84.60
2019-04-10T23:13:18.476Z,85.30
2019-04-10T23:15:51.792Z,84.30
2019-04-10T23:18:32.032Z,82.30
2019-04-10T23:21:06.009Z,84.60
2019-04-10T23:23:39.042Z,84.90
2019-04-10T23:26:23.495Z,85.50
2019-04-10T23:28:47.233Z,86.00
2019-04-10T23:31:18.340Z,85.00
2019-04-10T23:33:48.947Z,85.50
2019-04-10T23:36:23.545Z,84.30
2019-04-10T23:39:23.942Z,85.00
2019-04-10T23:45:23.792Z,85.60
2019-04-10T23:47:22.278Z,87.40
2019-04-10T23:49:55.265Z,86.10
2019-04-10T23:52:25.471Z,86.70
2019-04-10T23:54:59.867Z,86.60
